Terminal Aerodrome Forecast
Issued by NWS

Home | Current Version | Previous Version | Graphics & Text | Print | Product List | Glossary On
Versions: 1 2 3 4 5 6 7 8 9 10 11 12 13 14 15 16 17 18 19 20 21
000
FTUS43 KGRB 250500
TAFAUW
TAF
KAUW 250520Z 2506/2606 29007KT P6SM BKN012 OVC020
      TEMPO 2506/2510 BKN008
     FM251000 28006KT P6SM BKN008 OVC015
     FM251500 23007KT P6SM SCT015 OVC022
     FM252200 19005KT P6SM SCT022 OVC090
     FM260200 00000KT 6SM BR SCT100 BKN250=

USA.gov is the U.S. government's official web portal to all federal, state and local government web resources and services.